createdAt,value
2022-10-03T00:00:20.531Z,20.35
2022-10-03T00:03:19.909Z,21.70
2022-10-03T00:05:57.693Z,20.67
2022-10-03T00:08:51.934Z,20.77
2022-10-03T00:11:43.316Z,18.73
2022-10-03T00:14:23.548Z,18.13
2022-10-03T00:16:59.421Z,17.97
2022-10-03T00:19:47.633Z,18.58
2022-10-03T00:22:23.473Z,18.15
2022-10-03T00:25:02.345Z,18.20
2022-10-03T00:27:32.126Z,18.55
2022-10-03T00:30:13.559Z,19.42
2022-10-03T00:33:37.628Z,18.27
2022-10-03T00:36:27.521Z,18.85
2022-10-03T00:39:10.738Z,18.75
2022-10-03T00:41:49.496Z,18.83
2022-10-03T00:44:19.627Z,20.35
2022-10-03T00:47:05.331Z,20.45
2022-10-03T00:50:03.172Z,18.15
2022-10-03T00:52:56.506Z,17.38
2022-10-03T00:55:56.027Z,18.42
2022-10-03T00:58:32.765Z,18.45
2022-10-03T01:01:26.896Z,17.88
2022-10-03T01:04:23.868Z,20.33
2022-10-03T01:07:07.445Z,17.00
2022-10-03T01:09:49.602Z,18.52
2022-10-03T01:12:36.467Z,18.90
2022-10-03T01:15:15.906Z,20.50
2022-10-03T01:17:49.755Z,17.70
2022-10-03T01:20:47.812Z,17.60
2022-10-03T01:23:52.956Z,17.67
2022-10-03T01:26:53.755Z,21.02
2022-10-03T01:33:28.340Z,19.02
2022-10-03T01:36:05.357Z,18.23
2022-10-03T01:38:53.824Z,17.92
2022-10-03T01:41:35.207Z,17.08
2022-10-03T01:44:13.896Z,17.67
2022-10-03T01:46:51.972Z,19.75
2022-10-03T01:49:26.336Z,17.05
2022-10-03T01:51:53.587Z,17.50
2022-10-03T01:54:52.585Z,18.20
2022-10-03T01:57:45.360Z,22.35
2022-10-03T02:00:20.878Z,17.77
2022-10-03T02:03:00.173Z,18.60
2022-10-03T02:05:54.840Z,19.98
2022-10-03T02:08:40.826Z,20.75
2022-10-03T02:11:11.688Z,18.55
2022-10-03T02:13:55.657Z,17.47
2022-10-03T02:16:31.618Z,23.27
2022-10-03T02:19:07.368Z,24.20
2022-10-03T02:21:54.492Z,17.85
2022-10-03T02:24:37.441Z,18.15
2022-10-03T02:27:14.134Z,18.33
2022-10-03T02:29:56.114Z,17.83
2022-10-03T02:32:45.392Z,18.35
2022-10-03T02:35:46.997Z,17.70
2022-10-03T02:38:38.286Z,18.05
2022-10-03T02:41:27.179Z,19.67
2022-10-03T02:44:39.439Z,19.35
2022-10-03T02:47:21.633Z,18.30
2022-10-03T02:50:07.420Z,18.13
2022-10-03T02:53:12.027Z,17.75
2022-10-03T02:55:44.671Z,18.10
2022-10-03T02:58:33.520Z,18.70
2022-10-03T03:01:22.348Z,20.58
2022-10-03T03:04:23.332Z,17.50
2022-10-03T03:07:38.677Z,20.02
2022-10-03T03:10:41.138Z,18.63
2022-10-03T03:13:47.828Z,22.35
2022-10-03T03:16:15.016Z,19.65
2022-10-03T03:18:56.071Z,20.33
2022-10-03T03:21:51.688Z,19.00
2022-10-03T03:24:40.770Z,18.27
2022-10-03T03:27:26.173Z,26.38
2022-10-03T03:30:14.107Z,23.38
2022-10-03T03:33:11.270Z,20.98
2022-10-03T03:36:03.718Z,18.58
2022-10-03T03:38:58.129Z,18.50
2022-10-03T03:42:00.379Z,19.85
2022-10-03T03:44:47.462Z,22.48
2022-10-03T03:47:34.633Z,22.73
2022-10-03T03:50:16.645Z,22.23
2022-10-03T03:52:57.346Z,19.27
2022-10-03T03:55:48.781Z,19.20
2022-10-03T03:59:00.409Z,19.85
2022-10-03T04:01:41.797Z,27.33
2022-10-03T04:04:54.064Z,18.55
2022-10-03T04:07:39.729Z,18.65
2022-10-03T04:10:06.539Z,19.77
2022-10-03T04:12:53.540Z,20.90
2022-10-03T04:15:26.165Z,20.05
2022-10-03T04:18:51.374Z,20.02
2022-10-03T04:21:23.913Z,19.20
2022-10-03T04:24:01.852Z,18.02
2022-10-03T04:26:59.723Z,19.42
2022-10-03T04:29:48.151Z,19.88
2022-10-03T04:32:23.653Z,18.48
2022-10-03T04:34:58.304Z,18.60
2022-10-03T04:37:31.553Z,22.25
2022-10-03T04:40:26.023Z,20.27
2022-10-03T04:43:06.088Z,24.30
2022-10-03T04:45:40.522Z,22.00
2022-10-03T04:48:16.745Z,20.30
2022-10-03T04:51:06.273Z,24.05
2022-10-03T04:53:47.718Z,24.23
2022-10-03T04:56:31.858Z,22.52
2022-10-03T04:59:34.479Z,22.83
2022-10-03T05:02:20.177Z,21.73
2022-10-03T05:05:17.600Z,25.92
2022-10-03T05:07:47.030Z,19.02
2022-10-03T05:10:44.402Z,26.80
2022-10-03T05:13:30.272Z,23.65
2022-10-03T05:16:08.443Z,20.85
2022-10-03T05:18:50.326Z,21.55
2022-10-03T05:21:45.523Z,22.10
2022-10-03T05:24:46.631Z,20.23
2022-10-03T05:27:16.126Z,23.15
2022-10-03T05:30:20.391Z,18.83
2022-10-03T05:33:08.828Z,25.52
2022-10-03T05:35:51.505Z,18.17
2022-10-03T05:38:28.112Z,18.02
2022-10-03T05:41:12.525Z,20.67
2022-10-03T05:43:45.032Z,19.15
2022-10-03T05:46:39.792Z,22.05
2022-10-03T05:49:25.922Z,22.90
2022-10-03T05:52:21.975Z,21.85
2022-10-03T05:55:22.811Z,20.65
2022-10-03T05:57:58.655Z,21.55
2022-10-03T06:00:26.316Z,23.35
2022-10-03T06:02:59.356Z,31.45
2022-10-03T06:05:41.173Z,20.65
2022-10-03T06:08:14.643Z,21.33
2022-10-03T06:11:11.972Z,20.98
2022-10-03T06:14:12.110Z,23.95
2022-10-03T06:16:51.049Z,28.00
2022-10-03T06:19:49.873Z,20.27
2022-10-03T06:22:25.875Z,24.50
2022-10-03T06:25:18.194Z,23.15
2022-10-03T06:28:23.053Z,23.42
2022-10-03T06:31:11.799Z,20.65
2022-10-03T06:33:54.329Z,27.20
2022-10-03T06:36:39.460Z,24.73
2022-10-03T06:39:43.515Z,21.65
2022-10-03T06:42:22.245Z,21.90
2022-10-03T06:45:11.255Z,27.40
2022-10-03T06:47:56.388Z,20.88
2022-10-03T06:50:30.757Z,22.90
2022-10-03T06:53:33.063Z,20.95
2022-10-03T06:56:33.628Z,22.65
2022-10-03T06:59:38.364Z,20.63
2022-10-03T07:02:31.332Z,24.67
2022-10-03T07:05:40.945Z,25.55
2022-10-03T07:08:43.846Z,22.02
2022-10-03T07:11:10.584Z,21.30
2022-10-03T07:13:56.665Z,22.40
2022-10-03T07:16:29.630Z,22.17
2022-10-03T07:19:11.605Z,22.88
2022-10-03T07:21:48.777Z,26.23
2022-10-03T07:24:51.542Z,28.50
2022-10-03T07:27:50.967Z,24.33
2022-10-03T07:30:23.943Z,23.17
2022-10-03T07:33:27.920Z,22.00
2022-10-03T07:36:31.590Z,20.67
2022-10-03T07:39:38.265Z,22.10
2022-10-03T07:42:47.313Z,28.48
2022-10-03T07:45:23.419Z,21.90
2022-10-03T07:48:13.144Z,23.27
2022-10-03T07:51:11.055Z,23.13
2022-10-03T07:53:59.592Z,22.20
2022-10-03T07:57:17.015Z,20.98
2022-10-03T08:00:22.858Z,21.92
2022-10-03T08:03:08.030Z,23.35
2022-10-03T08:06:00.911Z,24.65
2022-10-03T08:09:03.404Z,21.00
2022-10-03T08:11:50.598Z,21.27
2022-10-03T08:14:51.843Z,20.92
2022-10-03T08:20:57.892Z,21.80
2022-10-03T08:24:01.798Z,22.25
2022-10-03T08:26:39.638Z,22.73
2022-10-03T08:29:20.913Z,24.25
2022-10-03T08:32:06.212Z,23.02
2022-10-03T08:34:39.077Z,21.88
2022-10-03T08:37:23.063Z,24.88
2022-10-03T08:40:11.436Z,21.10
2022-10-03T08:42:56.332Z,22.98
2022-10-03T08:45:53.902Z,21.27
2022-10-03T08:48:42.454Z,21.45
2022-10-03T08:51:31.364Z,24.73
2022-10-03T08:54:33.207Z,23.10
2022-10-03T08:57:33.217Z,22.02
2022-10-03T09:00:16.736Z,21.30
2022-10-03T09:03:39.326Z,21.95
2022-10-03T09:06:34.442Z,20.52
2022-10-03T09:09:13.249Z,22.98
2022-10-03T09:12:17.945Z,21.23
2022-10-03T09:15:05.374Z,21.38
2022-10-03T09:17:49.403Z,21.30
2022-10-03T09:20:37.149Z,20.50
2022-10-03T09:23:03.912Z,22.02
2022-10-03T09:25:30.647Z,23.38
2022-10-03T09:28:30.378Z,22.15
2022-10-03T09:31:12.800Z,22.35
2022-10-03T09:34:04.895Z,21.58
2022-10-03T09:36:52.804Z,22.38
2022-10-03T09:39:38.194Z,21.90
2022-10-03T09:42:10.769Z,22.23
2022-10-03T09:44:43.842Z,21.88
2022-10-03T09:47:49.189Z,26.83
2022-10-03T09:50:55.435Z,21.83
2022-10-03T09:53:30.136Z,22.65
2022-10-03T09:56:32.311Z,21.95
2022-10-03T09:59:37.363Z,22.90
2022-10-03T10:02:24.772Z,20.80
2022-10-03T10:05:17.182Z,21.58
2022-10-03T10:07:53.137Z,20.52
2022-10-03T10:10:53.498Z,21.30
2022-10-03T10:14:07.357Z,20.33
2022-10-03T10:16:48.382Z,21.55
2022-10-03T10:19:43.934Z,19.90
2022-10-03T10:23:04.725Z,19.50
2022-10-03T10:25:32.476Z,19.35
2022-10-03T10:28:22.991Z,21.25
2022-10-03T10:31:01.942Z,19.33
2022-10-03T10:33:53.476Z,19.00
2022-10-03T10:36:43.696Z,18.88
2022-10-03T10:39:14.320Z,19.73
2022-10-03T10:41:53.470Z,19.25
2022-10-03T10:44:33.941Z,19.20
2022-10-03T10:47:22.747Z,18.45
2022-10-03T10:50:08.357Z,19.48
2022-10-03T10:52:53.570Z,19.90
2022-10-03T10:55:54.302Z,18.92
2022-10-03T10:58:42.300Z,19.40
2022-10-03T11:01:35.138Z,18.88
2022-10-03T11:04:25.467Z,18.95
2022-10-03T11:07:16.920Z,19.00
2022-10-03T11:10:01.872Z,19.30
2022-10-03T11:18:36.964Z,22.45
2022-10-03T11:21:34.884Z,23.55
2022-10-03T11:24:40.164Z,24.25
2022-10-03T11:27:26.682Z,22.35
2022-10-03T11:30:23.841Z,21.80
2022-10-03T11:33:06.800Z,21.17
2022-10-03T11:36:04.981Z,21.40
2022-10-03T11:38:37.933Z,21.33
2022-10-03T11:41:04.786Z,21.80
2022-10-03T11:44:09.557Z,22.92
2022-10-03T11:46:52.224Z,20.92
2022-10-03T11:49:28.177Z,20.98
2022-10-03T11:52:10.380Z,20.80
2022-10-03T11:54:42.930Z,21.02
2022-10-03T11:57:32.081Z,20.70
2022-10-03T12:00:03.269Z,20.50
2022-10-03T12:02:42.173Z,19.55
2022-10-03T12:05:48.131Z,20.38
2022-10-03T12:08:54.731Z,21.33
2022-10-03T12:11:43.240Z,21.48
2022-10-03T12:14:11.534Z,20.27
2022-10-03T12:16:51.439Z,20.20
2022-10-03T12:19:37.836Z,21.25
2022-10-03T12:22:20.570Z,19.83
2022-10-03T12:24:49.822Z,20.15
2022-10-03T12:27:39.136Z,20.33
2022-10-03T12:30:16.333Z,19.65
2022-10-03T12:32:46.024Z,19.27
2022-10-03T12:35:45.585Z,18.88
2022-10-03T12:38:51.194Z,17.98
2022-10-03T12:41:26.138Z,19.08
2022-10-03T12:44:05.331Z,19.60
2022-10-03T12:46:41.575Z,19.20
2022-10-03T12:49:28.387Z,19.40
2022-10-03T12:51:59.775Z,20.27
2022-10-03T12:54:44.412Z,20.63
2022-10-03T12:57:17.369Z,20.13
2022-10-03T12:59:52.770Z,22.25
2022-10-03T13:02:36.812Z,21.95
2022-10-03T13:05:28.414Z,21.08
2022-10-03T13:07:58.095Z,20.73
2022-10-03T13:10:34.303Z,21.33
2022-10-03T13:13:23.749Z,20.20
2022-10-03T13:16:07.496Z,19.90
2022-10-03T13:19:14.944Z,19.75
2022-10-03T13:22:16.970Z,19.70
2022-10-03T13:24:54.364Z,19.67
2022-10-03T13:27:37.797Z,19.05
2022-10-03T13:30:15.051Z,19.25
2022-10-03T13:32:52.253Z,19.27
2022-10-03T13:35:56.869Z,19.13
2022-10-03T13:38:47.746Z,19.52
2022-10-03T13:41:25.579Z,19.88
2022-10-03T13:44:00.886Z,19.75
2022-10-03T13:46:48.746Z,19.00
2022-10-03T13:49:34.472Z,18.42
2022-10-03T13:52:27.091Z,19.15
2022-10-03T13:54:54.585Z,18.25
2022-10-03T13:57:27.424Z,19.50
2022-10-03T14:00:08.870Z,19.95
2022-10-03T14:03:09.099Z,20.77
2022-10-03T14:05:46.326Z,20.35
2022-10-03T14:09:02.347Z,18.88
2022-10-03T14:11:48.654Z,19.00
2022-10-03T14:14:22.038Z,18.38
2022-10-03T14:17:22.487Z,18.80
2022-10-03T14:19:55.668Z,18.17
2022-10-03T14:22:39.008Z,18.60
2022-10-03T14:25:26.338Z,18.40
2022-10-03T14:27:55.693Z,18.17
2022-10-03T14:30:33.982Z,17.73
2022-10-03T14:33:23.915Z,17.58
2022-10-03T14:35:58.819Z,17.38
2022-10-03T14:39:00.819Z,17.55
2022-10-03T14:41:41.779Z,16.85
2022-10-03T14:44:13.901Z,17.33
2022-10-03T14:47:25.414Z,17.60
2022-10-03T14:50:00.119Z,18.83
2022-10-03T14:52:37.196Z,18.38
2022-10-03T14:55:29.858Z,18.73
2022-10-03T14:58:11.058Z,17.85
2022-10-03T15:00:45.459Z,17.38
2022-10-03T15:03:18.276Z,18.15
2022-10-03T15:05:57.118Z,17.88
2022-10-03T15:08:37.931Z,17.35
2022-10-03T15:11:07.409Z,18.00
2022-10-03T15:14:02.668Z,17.52
2022-10-03T15:16:37.177Z,17.67
2022-10-03T15:19:28.669Z,17.67
2022-10-03T15:22:16.715Z,17.88
2022-10-03T15:24:44.915Z,22.05
2022-10-03T15:27:22.555Z,21.85
2022-10-03T15:29:54.966Z,21.23
2022-10-03T15:32:43.806Z,21.98
2022-10-03T15:35:32.057Z,21.27
2022-10-03T15:38:10.356Z,21.70
2022-10-03T15:40:47.337Z,21.27
2022-10-03T15:43:34.850Z,21.33
2022-10-03T15:46:12.985Z,21.52
2022-10-03T15:48:47.242Z,22.10
2022-10-03T15:51:20.226Z,21.83
2022-10-03T15:53:51.460Z,21.83
2022-10-03T15:56:29.981Z,21.65
2022-10-03T15:59:06.063Z,22.50
2022-10-03T16:01:39.950Z,22.23
2022-10-03T16:04:29.983Z,21.67
2022-10-03T16:07:11.723Z,20.88
2022-10-03T16:09:41.521Z,20.65
2022-10-03T16:12:47.294Z,20.50
2022-10-03T16:15:22.966Z,20.60
2022-10-03T16:17:59.356Z,20.17
2022-10-03T16:20:41.568Z,19.98
2022-10-03T16:23:23.506Z,21.92
2022-10-03T16:25:55.678Z,20.85
2022-10-03T16:28:32.237Z,22.08
2022-10-03T16:31:03.241Z,22.15
2022-10-03T16:36:02.237Z,20.20
2022-10-03T16:38:41.295Z,21.52
2022-10-03T16:41:23.043Z,19.63
2022-10-03T16:44:01.615Z,19.20
2022-10-03T16:46:37.722Z,19.02
2022-10-03T16:49:31.892Z,18.00
2022-10-03T16:52:09.056Z,18.90
2022-10-03T16:54:37.393Z,19.50
2022-10-03T16:57:15.950Z,19.13
2022-10-03T16:59:49.313Z,17.83
2022-10-03T17:02:21.527Z,18.48
2022-10-03T17:04:51.812Z,17.70
2022-10-03T17:07:29.186Z,17.73
2022-10-03T17:10:03.153Z,17.98
2022-10-03T17:12:34.703Z,19.30
2022-10-03T17:15:25.539Z,19.20
2022-10-03T17:18:04.584Z,18.27
2022-10-03T17:20:50.798Z,19.20
2022-10-03T17:23:32.827Z,18.52
2022-10-03T17:26:05.653Z,19.40
2022-10-03T17:28:56.410Z,19.45
2022-10-03T17:31:23.421Z,16.13
2022-10-03T17:33:55.843Z,14.20
2022-10-03T17:36:50.789Z,15.10
2022-10-03T17:39:49.950Z,15.30
2022-10-03T17:42:38.916Z,15.10
2022-10-03T17:45:18.869Z,14.52
2022-10-03T17:48:04.540Z,15.38
2022-10-03T17:50:39.492Z,15.52
2022-10-03T17:53:19.717Z,15.00
2022-10-03T17:55:48.674Z,14.73
2022-10-03T17:58:18.085Z,15.48
2022-10-03T18:00:45.089Z,15.45
2022-10-03T18:03:39.596Z,14.93
2022-10-03T18:06:33.623Z,15.75
2022-10-03T18:09:23.664Z,15.85
2022-10-03T18:11:52.870Z,15.32
2022-10-03T18:14:38.102Z,15.25
2022-10-03T18:17:08.349Z,15.80
2022-10-03T18:19:53.935Z,16.10
2022-10-03T18:22:29.063Z,16.48
2022-10-03T18:25:30.767Z,15.68
2022-10-03T18:28:12.361Z,15.60
2022-10-03T18:30:50.119Z,16.38
2022-10-03T18:33:23.617Z,16.23
2022-10-03T18:35:50.965Z,15.93
2022-10-03T18:38:27.025Z,15.35
2022-10-03T18:41:02.037Z,15.77
2022-10-03T18:43:33.117Z,15.85
2022-10-03T18:46:16.053Z,15.55
2022-10-03T18:49:31.921Z,16.63
2022-10-03T18:52:00.430Z,16.05
2022-10-03T18:54:55.298Z,15.60
2022-10-03T18:58:00.268Z,15.60
2022-10-03T19:00:34.279Z,15.48
2022-10-03T19:03:13.671Z,16.20
2022-10-03T19:05:52.029Z,16.15
2022-10-03T19:09:01.148Z,15.35
2022-10-03T19:11:38.840Z,15.80
2022-10-03T19:14:17.502Z,16.33
2022-10-03T19:17:14.407Z,16.55
2022-10-03T19:19:59.092Z,16.50
2022-10-03T19:22:55.890Z,17.30
2022-10-03T19:25:25.353Z,17.00
2022-10-03T19:27:58.917Z,17.02
2022-10-03T19:30:29.857Z,15.73
2022-10-03T19:33:07.120Z,15.95
2022-10-03T19:35:40.934Z,16.85
2022-10-03T19:38:25.301Z,16.92
2022-10-03T19:40:54.834Z,16.40
2022-10-03T19:43:21.686Z,17.10
2022-10-03T19:46:11.677Z,17.15
2022-10-03T19:48:59.128Z,16.83
2022-10-03T19:51:27.673Z,16.50
2022-10-03T19:53:57.533Z,16.23
2022-10-03T19:56:32.484Z,16.52
2022-10-03T19:59:12.804Z,17.13
2022-10-03T20:01:50.194Z,16.15
2022-10-03T20:04:36.522Z,16.00
2022-10-03T20:07:53.116Z,16.85
2022-10-03T20:10:47.278Z,16.20
2022-10-03T20:13:15.164Z,17.50
2022-10-03T20:15:45.561Z,16.15
2022-10-03T20:18:22.224Z,17.23
2022-10-03T20:20:53.414Z,17.17
2022-10-03T20:23:23.551Z,16.77
2022-10-03T20:26:14.139Z,17.83
2022-10-03T20:28:52.859Z,17.10
2022-10-03T20:31:23.055Z,16.30
2022-10-03T20:33:53.559Z,16.15
2022-10-03T20:36:22.762Z,16.23
2022-10-03T20:39:02.300Z,16.60
2022-10-03T20:41:41.435Z,16.77
2022-10-03T20:44:11.446Z,16.50
2022-10-03T20:46:41.918Z,17.50
2022-10-03T20:49:27.324Z,17.13
2022-10-03T20:51:54.108Z,17.88
2022-10-03T20:54:27.276Z,16.05
2022-10-03T20:57:05.961Z,16.02
2022-10-03T21:00:00.020Z,16.30
2022-10-03T21:03:15.254Z,16.15
2022-10-03T21:05:53.846Z,16.58
2022-10-03T21:08:29.286Z,17.38
2022-10-03T21:10:59.985Z,17.02
2022-10-03T21:13:32.938Z,16.38
2022-10-03T21:16:01.655Z,16.75
2022-10-03T21:18:40.254Z,16.90
2022-10-03T21:21:14.975Z,17.00
2022-10-03T21:23:45.673Z,16.10
2022-10-03T21:26:13.260Z,16.50
2022-10-03T21:28:40.105Z,16.80
2022-10-03T21:31:34.726Z,16.88
2022-10-03T21:34:32.785Z,17.30
2022-10-03T21:37:11.568Z,17.45
2022-10-03T21:39:41.002Z,17.70
2022-10-03T21:42:15.141Z,17.50
2022-10-03T21:44:54.341Z,17.92
2022-10-03T21:47:46.692Z,17.27
2022-10-03T21:50:29.244Z,16.70
2022-10-03T21:53:02.129Z,17.80
2022-10-03T21:55:59.228Z,18.27
2022-10-03T21:58:55.248Z,18.65
2022-10-03T22:01:34.182Z,17.52
2022-10-03T22:04:07.945Z,17.60
2022-10-03T22:06:55.620Z,17.15
2022-10-03T22:09:22.501Z,17.40
2022-10-03T22:12:02.779Z,16.83
2022-10-03T22:14:54.332Z,18.03
2022-10-03T22:17:28.156Z,16.80
2022-10-03T22:20:10.463Z,17.30
2022-10-03T22:23:09.854Z,17.98
2022-10-03T22:26:01.079Z,17.65
2022-10-03T22:31:39.219Z,18.38
2022-10-03T22:34:23.476Z,18.80
2022-10-03T22:36:51.297Z,17.73
2022-10-03T22:39:20.032Z,17.63
2022-10-03T22:41:51.235Z,17.35
2022-10-03T22:44:22.493Z,17.08
2022-10-03T22:46:55.478Z,16.88
2022-10-03T22:49:58.886Z,17.15
2022-10-03T22:52:30.258Z,17.58
2022-10-03T22:54:57.965Z,18.52
2022-10-03T22:57:25.754Z,17.35
2022-10-03T23:00:09.217Z,16.73
2022-10-03T23:02:45.795Z,17.13
2022-10-03T23:05:47.192Z,17.20
2022-10-03T23:08:47.060Z,16.55
2022-10-03T23:11:29.295Z,16.27
2022-10-03T23:14:15.294Z,16.23
2022-10-03T23:16:51.793Z,17.30
2022-10-03T23:19:48.006Z,16.50
2022-10-03T23:22:18.910Z,16.80
2022-10-03T23:25:26.982Z,16.70
2022-10-03T23:28:08.788Z,17.38
2022-10-03T23:30:35.573Z,17.00
2022-10-03T23:33:02.428Z,17.08
2022-10-03T23:35:31.900Z,16.92
2022-10-03T23:38:00.279Z,17.50
2022-10-03T23:40:33.213Z,16.88
2022-10-03T23:43:19.070Z,16.25
2022-10-03T23:45:48.214Z,17.48
2022-10-03T23:48:19.853Z,16.58
2022-10-03T23:50:51.925Z,17.23
2022-10-03T23:53:39.000Z,16.48
2022-10-03T23:56:30.261Z,16.30
2022-10-03T23:59:03.236Z,17.10
